Terminal Aerodrome Forecast
Issued by NWS

Home | Current Version | Previous Version | Text Only | Print | Product List | Glossary On
Versions: 1 2 3 4 5 6 7 8 9 10 11 12 13 14 15 16 17 18 19 20 21 22 23 24
390
FTUS44 KBMX 030114 AAA
TAFTOI
TAF AMD
KTOI 030114Z 0301/0324 31010KT 4SM SHRA VCTS SCT040CB BKN100
     FM030230 27007KT 6SM SHRA VCTS SCT040CB BKN100
     FM030600 27004KT 5SM BR SCT007 BKN015
     FM030900 27004KT 4SM BR BKN007
     FM031500 30007KT P6SM VCSH SCT015 BKN050=

USA.gov is the U.S. government's official web portal to all federal, state and local government web resources and services.